createdAt,value
2018-03-17T00:00:17.097Z,17.23
2018-03-17T00:02:44.627Z,17.60
2018-03-17T00:05:12.140Z,16.07
2018-03-17T00:07:39.689Z,16.37
2018-03-17T00:10:07.435Z,15.80
2018-03-17T00:12:34.926Z,16.07
2018-03-17T00:15:02.440Z,16.00
2018-03-17T00:17:30.702Z,15.40
2018-03-17T00:19:58.633Z,15.47
2018-03-17T00:22:26.939Z,15.73
2018-03-17T00:24:55.618Z,15.50
2018-03-17T00:27:23.160Z,15.60
2018-03-17T00:29:50.623Z,15.80
2018-03-17T00:32:18.963Z,14.80
2018-03-17T00:34:47.105Z,15.30
2018-03-17T00:37:14.587Z,15.43
2018-03-17T00:39:42.051Z,15.70
2018-03-17T00:42:10.003Z,15.13
2018-03-17T00:44:37.508Z,15.17
2018-03-17T00:47:05.015Z,14.87
2018-03-17T00:49:32.508Z,14.33
2018-03-17T00:52:00.060Z,14.90
2018-03-17T00:54:27.804Z,14.70
2018-03-17T00:56:56.123Z,13.87
2018-03-17T00:59:23.615Z,15.83
2018-03-17T01:01:51.108Z,15.47
2018-03-17T01:04:19.031Z,15.83
2018-03-17T01:06:46.592Z,14.70
2018-03-17T01:09:14.150Z,16.87
2018-03-17T01:11:41.651Z,18.10
2018-03-17T01:14:09.560Z,17.63
2018-03-17T01:16:37.075Z,17.50
2018-03-17T01:19:04.684Z,18.40
2018-03-17T01:21:32.166Z,17.90
2018-03-17T01:24:00.650Z,17.00
2018-03-17T01:26:28.200Z,15.57
2018-03-17T01:28:55.675Z,15.80
2018-03-17T01:31:24.069Z,16.53
2018-03-17T01:33:51.551Z,17.17
2018-03-17T01:36:19.104Z,17.97
2018-03-17T01:38:46.627Z,16.17
2018-03-17T01:41:14.188Z,17.67
2018-03-17T01:43:41.698Z,17.03
2018-03-17T01:46:09.262Z,16.83
2018-03-17T01:48:36.980Z,16.57
2018-03-17T01:51:04.439Z,18.30
2018-03-17T01:53:32.280Z,17.23
2018-03-17T01:55:59.840Z,18.80
2018-03-17T01:58:27.351Z,18.50
2018-03-17T02:00:55.692Z,19.53
2018-03-17T02:03:23.413Z,18.60
2018-03-17T02:05:50.919Z,19.70
2018-03-17T02:08:18.945Z,18.43
2018-03-17T02:10:46.735Z,19.00
2018-03-17T02:13:14.215Z,19.07
2018-03-17T02:15:41.699Z,19.23
2018-03-17T02:18:09.449Z,21.50
2018-03-17T02:20:36.960Z,18.73
2018-03-17T02:23:04.471Z,19.77
2018-03-17T02:25:31.961Z,20.00
2018-03-17T02:27:59.442Z,20.90
2018-03-17T02:30:27.182Z,20.20
2018-03-17T02:32:54.931Z,21.07
2018-03-17T02:35:22.442Z,20.43
2018-03-17T02:37:50.323Z,21.83
2018-03-17T02:40:17.812Z,22.07
2018-03-17T02:42:45.301Z,22.70
2018-03-17T02:45:12.784Z,22.53
2018-03-17T02:47:40.332Z,22.90
2018-03-17T02:50:07.863Z,23.57
2018-03-17T02:52:35.807Z,23.90
2018-03-17T02:55:03.288Z,22.10
2018-03-17T02:57:31.653Z,23.13
2018-03-17T03:00:00.550Z,24.63
2018-03-17T03:02:28.023Z,25.13
2018-03-17T03:04:55.584Z,25.63
2018-03-17T03:07:23.084Z,23.50
2018-03-17T03:09:50.959Z,25.77
2018-03-17T03:12:18.452Z,25.77
2018-03-17T03:14:46.008Z,25.37
2018-03-17T03:17:13.468Z,24.20
2018-03-17T03:19:41.039Z,25.93
2018-03-17T03:22:08.545Z,26.30
2018-03-17T03:24:36.939Z,25.60
2018-03-17T03:27:04.424Z,24.73
2018-03-17T03:29:31.963Z,25.07
2018-03-17T03:31:59.463Z,23.00
2018-03-17T03:34:27.007Z,25.47
2018-03-17T03:36:54.481Z,23.43
2018-03-17T03:39:22.015Z,25.67
2018-03-17T03:41:49.719Z,24.50
2018-03-17T03:44:18.171Z,23.70
2018-03-17T03:46:46.076Z,23.80
2018-03-17T03:49:13.847Z,23.53
2018-03-17T03:51:41.332Z,24.83
2018-03-17T03:54:09.048Z,25.80
2018-03-17T03:56:36.583Z,23.37
2018-03-17T03:59:04.061Z,25.00
2018-03-17T04:01:31.952Z,24.67
2018-03-17T04:03:59.828Z,26.33
2018-03-17T04:06:27.586Z,24.03
2018-03-17T04:08:55.112Z,26.07
2018-03-17T04:11:22.592Z,25.47
2018-03-17T04:13:50.106Z,24.27
2018-03-17T04:16:17.615Z,24.47
2018-03-17T04:18:45.120Z,25.93
2018-03-17T04:21:13.365Z,25.53
2018-03-17T04:23:41.059Z,26.43
2018-03-17T04:26:08.543Z,25.63
2018-03-17T04:28:36.268Z,24.77
2018-03-17T04:31:03.804Z,25.10
2018-03-17T04:33:31.572Z,27.63
2018-03-17T04:35:59.306Z,28.10
2018-03-17T04:38:27.231Z,26.77
2018-03-17T04:40:54.796Z,24.80
2018-03-17T04:43:22.291Z,25.83
2018-03-17T04:45:49.792Z,27.60
2018-03-17T04:48:17.528Z,25.87
2018-03-17T04:50:47.442Z,25.63
2018-03-17T04:53:15.139Z,24.23
2018-03-17T04:55:42.615Z,27.53
2018-03-17T04:58:10.071Z,25.57
2018-03-17T05:00:37.771Z,24.80
2018-03-17T05:03:05.235Z,24.80
2018-03-17T05:05:32.727Z,25.27
2018-03-17T05:08:00.194Z,24.60
2018-03-17T05:10:27.985Z,23.20
2018-03-17T05:12:55.755Z,23.83
2018-03-17T05:15:23.332Z,23.07
2018-03-17T05:17:51.226Z,25.10
2018-03-17T05:20:18.932Z,24.90
2018-03-17T05:22:46.455Z,24.83
2018-03-17T05:25:13.934Z,23.27
2018-03-17T05:27:41.441Z,22.63
2018-03-17T05:30:09.636Z,21.30
2018-03-17T05:32:37.996Z,22.53
2018-03-17T05:35:05.524Z,22.43
2018-03-17T05:37:33.281Z,22.93
2018-03-17T05:40:00.736Z,21.20
2018-03-17T05:42:29.334Z,21.70
2018-03-17T05:44:56.845Z,20.77
2018-03-17T05:47:25.640Z,21.57
2018-03-17T05:49:53.335Z,20.70
2018-03-17T05:52:20.864Z,20.57
2018-03-17T05:54:48.783Z,21.30
2018-03-17T05:57:16.341Z,18.17
2018-03-17T05:59:43.812Z,20.10
2018-03-17T06:02:11.299Z,18.27
2018-03-17T06:04:38.756Z,19.30
2018-03-17T06:07:06.407Z,18.37
2018-03-17T06:09:33.864Z,16.77
2018-03-17T06:12:03.007Z,18.13
2018-03-17T06:14:30.694Z,18.23
2018-03-17T06:16:58.226Z,18.23
2018-03-17T06:19:25.683Z,17.97
2018-03-17T06:21:53.445Z,17.87
2018-03-17T06:24:20.954Z,18.53
2018-03-17T06:26:49.725Z,17.33
2018-03-17T06:29:17.187Z,15.83
2018-03-17T06:31:44.706Z,17.00
2018-03-17T06:34:12.230Z,17.33
2018-03-17T06:36:39.719Z,18.00
2018-03-17T06:39:07.503Z,17.20
2018-03-17T06:41:35.413Z,16.17
2018-03-17T06:44:03.667Z,15.43
2018-03-17T06:46:33.097Z,16.17
2018-03-17T06:49:01.436Z,16.10
2018-03-17T06:51:28.919Z,15.83
2018-03-17T06:53:56.380Z,15.13
2018-03-17T06:56:23.860Z,16.40
2018-03-17T06:58:51.326Z,15.30
2018-03-17T07:01:18.807Z,15.93
2018-03-17T07:03:46.275Z,15.33
2018-03-17T07:06:13.959Z,16.20
2018-03-17T07:08:41.468Z,15.00
2018-03-17T07:11:08.959Z,14.77
2018-03-17T07:13:36.445Z,13.70
2018-03-17T07:16:04.439Z,14.23
2018-03-17T07:18:31.923Z,12.47
2018-03-17T07:20:59.399Z,13.60
2018-03-17T07:23:26.879Z,14.10
2018-03-17T07:25:54.345Z,14.77
2018-03-17T07:28:21.828Z,14.33
2018-03-17T07:30:49.314Z,14.30
2018-03-17T07:33:16.810Z,14.80
2018-03-17T07:35:44.271Z,13.80
2018-03-17T07:38:11.746Z,14.20
2018-03-17T07:40:39.206Z,15.97
2018-03-17T07:43:06.705Z,14.67
2018-03-17T07:45:34.164Z,14.97
2018-03-17T07:48:01.656Z,13.97
2018-03-17T07:50:29.119Z,15.27
2018-03-17T07:52:56.631Z,14.10
2018-03-17T07:55:24.152Z,15.47
2018-03-17T07:57:52.438Z,14.43
2018-03-17T08:00:19.906Z,15.10
2018-03-17T08:02:47.398Z,15.13
2018-03-17T08:05:14.859Z,15.47
2018-03-17T08:07:42.347Z,15.80
2018-03-17T08:10:09.808Z,14.80
2018-03-17T08:12:37.294Z,14.20
2018-03-17T08:15:04.860Z,15.07
2018-03-17T08:17:32.344Z,14.50
2018-03-17T08:19:59.816Z,13.50
2018-03-17T08:22:27.336Z,12.87
2018-03-17T08:24:54.789Z,12.43
2018-03-17T08:27:22.247Z,11.67
2018-03-17T08:29:49.733Z,11.43
2018-03-17T08:32:17.204Z,11.83
2018-03-17T08:34:44.687Z,11.97
2018-03-17T08:37:12.160Z,10.93
2018-03-17T08:39:39.635Z,11.57
2018-03-17T08:42:07.095Z,10.20
2018-03-17T08:44:34.583Z,10.10
2018-03-17T08:47:02.052Z,10.83
2018-03-17T08:49:29.539Z,10.73
2018-03-17T08:51:56.999Z,9.73
2018-03-17T08:54:24.463Z,9.60
2018-03-17T08:56:51.916Z,9.80
2018-03-17T08:59:19.395Z,9.43
2018-03-17T09:01:46.847Z,9.10
2018-03-17T09:04:14.323Z,9.40
2018-03-17T09:06:41.779Z,10.97
2018-03-17T09:09:09.256Z,9.23
2018-03-17T09:11:36.711Z,9.60
2018-03-17T09:14:04.211Z,10.10
2018-03-17T09:16:31.668Z,8.93
2018-03-17T09:18:59.159Z,9.00
2018-03-17T09:21:26.619Z,9.03
2018-03-17T09:23:54.091Z,9.30
2018-03-17T09:26:22.053Z,8.37
2018-03-17T09:28:49.554Z,9.60
2018-03-17T09:31:17.492Z,9.17
2018-03-17T09:33:44.969Z,8.60
2018-03-17T09:36:12.451Z,8.60
2018-03-17T09:38:39.927Z,9.87
2018-03-17T09:41:07.435Z,9.73
2018-03-17T09:43:34.887Z,9.60
2018-03-17T09:46:02.351Z,8.87
2018-03-17T09:48:29.849Z,9.40
2018-03-17T09:50:57.312Z,10.47
2018-03-17T09:53:24.780Z,9.20
2018-03-17T09:55:52.260Z,9.17
2018-03-17T09:58:19.758Z,9.17
2018-03-17T10:00:47.970Z,8.93
2018-03-17T10:03:15.471Z,8.63
2018-03-17T10:05:42.957Z,8.87
2018-03-17T10:08:10.416Z,8.87
2018-03-17T10:10:38.220Z,8.67
2018-03-17T10:13:05.731Z,8.43
2018-03-17T10:15:33.269Z,8.17
2018-03-17T10:18:00.744Z,8.63
2018-03-17T10:20:28.922Z,9.07
2018-03-17T10:22:56.395Z,9.27
2018-03-17T10:25:23.876Z,8.73
2018-03-17T10:27:51.852Z,9.37
2018-03-17T10:30:19.644Z,9.33
2018-03-17T10:32:47.946Z,8.40
2018-03-17T10:35:18.479Z,9.00
2018-03-17T10:37:46.205Z,8.80
2018-03-17T10:40:13.687Z,8.27
2018-03-17T10:42:43.697Z,8.40
2018-03-17T10:45:12.251Z,7.97
2018-03-17T10:47:39.964Z,8.90
2018-03-17T10:50:07.624Z,8.43
2018-03-17T10:52:36.331Z,8.00
2018-03-17T10:55:03.847Z,8.07
2018-03-17T10:57:32.151Z,7.70
2018-03-17T10:59:59.774Z,7.83
2018-03-17T11:02:48.486Z,8.27
2018-03-17T11:05:15.987Z,8.60
2018-03-17T11:07:44.541Z,8.83
2018-03-17T11:10:12.322Z,9.30
2018-03-17T11:12:39.781Z,8.67
2018-03-17T11:15:07.688Z,8.13
2018-03-17T11:17:37.264Z,8.27
2018-03-17T11:20:04.808Z,8.10
2018-03-17T11:22:32.260Z,7.57
2018-03-17T11:24:59.743Z,8.30
2018-03-17T11:27:27.285Z,7.27
2018-03-17T11:29:54.809Z,8.07
2018-03-17T11:32:22.483Z,8.73
2018-03-17T11:34:50.396Z,7.73
2018-03-17T11:37:20.813Z,7.37
2018-03-17T11:39:48.303Z,8.83
2018-03-17T11:42:15.824Z,7.37
2018-03-17T11:44:43.287Z,7.47
2018-03-17T11:47:13.166Z,7.97
2018-03-17T11:49:41.761Z,7.90
2018-03-17T11:52:10.047Z,6.60
2018-03-17T11:54:37.575Z,7.47
2018-03-17T11:57:05.061Z,7.17
2018-03-17T11:59:32.753Z,8.13
2018-03-17T12:02:00.250Z,7.47
2018-03-17T12:04:27.981Z,7.93
2018-03-17T12:07:00.660Z,7.80
2018-03-17T12:09:28.124Z,7.23
2018-03-17T12:11:55.599Z,7.50
2018-03-17T12:14:25.128Z,6.90
2018-03-17T12:16:54.792Z,7.40
2018-03-17T12:19:22.252Z,7.10
2018-03-17T12:21:49.716Z,7.73
2018-03-17T12:35:47.646Z,8.53
2018-03-17T12:38:15.112Z,7.67
2018-03-17T12:40:42.660Z,7.53
2018-03-17T12:43:11.383Z,7.70
2018-03-17T12:45:38.867Z,8.33
2018-03-17T12:48:06.320Z,8.17
2018-03-17T12:50:33.771Z,7.83
2018-03-17T12:53:01.243Z,8.00
2018-03-17T12:55:28.704Z,8.07
2018-03-17T12:57:56.191Z,7.70
2018-03-17T13:00:23.649Z,8.20
2018-03-17T13:02:51.119Z,7.53
2018-03-17T13:05:18.582Z,7.63
2018-03-17T13:07:46.070Z,8.80
2018-03-17T13:10:13.535Z,8.70
2018-03-17T13:12:41.027Z,7.80
2018-03-17T13:15:08.483Z,8.60
2018-03-17T13:17:35.960Z,8.43
2018-03-17T13:20:03.438Z,7.83
2018-03-17T13:22:42.712Z,7.87
2018-03-17T13:25:10.172Z,8.43
2018-03-17T13:27:49.329Z,8.53
2018-03-17T13:30:16.788Z,9.10
2018-03-17T13:32:52.715Z,8.07
2018-03-17T13:35:20.182Z,8.57
2018-03-17T13:37:47.668Z,8.43
2018-03-17T13:40:26.988Z,9.17
2018-03-17T13:42:54.468Z,9.07
2018-03-17T13:45:21.948Z,8.43
2018-03-17T13:47:49.425Z,8.40
2018-03-17T13:50:16.880Z,9.10
2018-03-17T13:52:44.356Z,8.80
2018-03-17T13:55:11.811Z,8.73
2018-03-17T13:57:39.283Z,8.10
2018-03-17T14:00:06.743Z,8.30
2018-03-17T14:02:34.228Z,8.80
2018-03-17T14:05:01.683Z,8.83
2018-03-17T14:07:29.164Z,8.63
2018-03-17T14:09:56.643Z,8.57
2018-03-17T14:12:24.111Z,8.63
2018-03-17T14:14:51.569Z,8.77
2018-03-17T14:17:19.044Z,9.03
2018-03-17T14:19:46.581Z,8.20
2018-03-17T14:22:14.067Z,8.60
2018-03-17T14:24:41.531Z,9.50
2018-03-17T14:27:08.997Z,9.33
2018-03-17T14:29:36.481Z,8.30
2018-03-17T14:32:03.988Z,8.90
2018-03-17T14:34:31.436Z,8.97
2018-03-17T14:36:58.893Z,8.37
2018-03-17T14:39:26.370Z,9.40
2018-03-17T14:41:53.835Z,9.57
2018-03-17T14:44:21.315Z,9.00
2018-03-17T14:46:48.826Z,8.70
2018-03-17T14:49:16.303Z,9.20
2018-03-17T14:51:43.783Z,9.73
2018-03-17T14:54:11.264Z,9.03
2018-03-17T14:56:38.720Z,8.50
2018-03-17T14:59:06.212Z,9.37
2018-03-17T15:01:33.679Z,8.10
2018-03-17T15:04:01.159Z,9.27
2018-03-17T15:06:28.622Z,8.53
2018-03-17T15:08:56.110Z,9.10
2018-03-17T15:11:23.583Z,8.67
2018-03-17T15:13:51.054Z,9.30
2018-03-17T15:16:18.514Z,8.23
2018-03-17T15:18:46.393Z,8.67
2018-03-17T15:21:13.937Z,8.13
2018-03-17T15:23:41.444Z,8.67
2018-03-17T15:26:10.027Z,8.60
2018-03-17T15:28:38.425Z,8.63
2018-03-17T15:31:05.945Z,8.57
2018-03-17T15:33:33.428Z,9.20
2018-03-17T15:36:00.959Z,8.77
2018-03-17T15:38:28.502Z,11.07
2018-03-17T15:40:56.105Z,9.07
2018-03-17T15:43:25.315Z,8.97
2018-03-17T15:45:53.143Z,8.87
2018-03-17T15:48:20.626Z,8.90
2018-03-17T15:50:48.527Z,9.00
2018-03-17T15:53:16.004Z,9.20
2018-03-17T15:55:44.563Z,9.40
2018-03-17T15:58:12.043Z,9.13
2018-03-17T16:00:39.519Z,8.93
2018-03-17T16:03:07.064Z,9.27
2018-03-17T16:05:36.628Z,8.80
2018-03-17T16:08:04.128Z,8.63
2018-03-17T16:10:31.623Z,8.80
2018-03-17T16:12:59.094Z,8.53
2018-03-17T16:15:26.607Z,9.23
2018-03-17T16:17:54.066Z,9.23
2018-03-17T16:20:21.556Z,8.83
2018-03-17T16:22:50.503Z,8.60
2018-03-17T16:25:18.096Z,9.50
2018-03-17T16:27:52.148Z,8.87
2018-03-17T16:30:19.656Z,10.10
2018-03-17T16:32:47.121Z,8.80
2018-03-17T16:35:14.625Z,8.90
2018-03-17T16:37:42.229Z,9.97
2018-03-17T16:40:13.939Z,9.60
2018-03-17T16:42:41.756Z,9.60
2018-03-17T16:45:09.236Z,8.63
2018-03-17T16:47:36.699Z,9.40
2018-03-17T16:50:04.215Z,8.83
2018-03-17T16:52:32.708Z,8.83
2018-03-17T16:55:00.539Z,9.83
2018-03-17T16:57:28.345Z,9.33
2018-03-17T16:59:56.245Z,9.40
2018-03-17T17:02:24.008Z,9.30
2018-03-17T17:04:53.112Z,9.17
2018-03-17T17:07:21.648Z,9.03
2018-03-17T17:09:50.198Z,9.23
2018-03-17T17:12:17.960Z,9.63
2018-03-17T17:14:46.623Z,9.67
2018-03-17T17:17:14.852Z,9.50
2018-03-17T17:19:43.558Z,9.20
2018-03-17T17:22:12.288Z,9.70
2018-03-17T17:24:40.985Z,9.30
2018-03-17T17:27:09.751Z,8.83
2018-03-17T17:29:38.423Z,9.10
2018-03-17T17:32:06.289Z,9.47
2018-03-17T17:34:34.299Z,10.07
2018-03-17T17:37:01.781Z,9.63
2018-03-17T17:39:29.259Z,9.30
2018-03-17T17:41:56.751Z,10.20
2018-03-17T17:44:24.208Z,8.77
2018-03-17T17:46:51.724Z,8.80
2018-03-17T17:49:20.203Z,8.80
2018-03-17T17:51:47.684Z,8.40
2018-03-17T17:54:16.765Z,9.17
2018-03-17T17:56:47.748Z,8.83
2018-03-17T17:59:15.224Z,9.33
2018-03-17T18:01:42.742Z,8.47
2018-03-17T18:04:13.402Z,9.23
2018-03-17T18:06:41.176Z,8.90
2018-03-17T18:09:08.645Z,8.67
2018-03-17T18:11:36.138Z,9.07
2018-03-17T18:14:03.595Z,9.33
2018-03-17T18:16:31.071Z,9.53
2018-03-17T18:18:58.536Z,8.93
2018-03-17T18:21:31.245Z,9.63
2018-03-17T18:23:58.710Z,9.20
2018-03-17T18:26:29.672Z,8.67
2018-03-17T18:28:57.134Z,9.20
2018-03-17T18:31:32.218Z,9.27
2018-03-17T18:37:11.434Z,9.50
2018-03-17T18:39:40.587Z,8.93
2018-03-17T18:42:09.128Z,9.10
2018-03-17T18:44:45.005Z,9.50
2018-03-17T18:47:12.500Z,9.70
2018-03-17T18:49:39.955Z,9.27
2018-03-17T18:52:07.439Z,9.77
2018-03-17T18:54:34.907Z,9.03
2018-03-17T18:57:02.391Z,8.60
2018-03-17T18:59:29.861Z,8.83
2018-03-17T19:01:57.349Z,8.93
2018-03-17T19:04:24.814Z,9.27
2018-03-17T19:06:52.299Z,9.80
2018-03-17T19:09:19.775Z,8.90
2018-03-17T19:11:47.270Z,9.10
2018-03-17T19:14:14.727Z,8.63
2018-03-17T19:16:42.209Z,8.37
2018-03-17T19:19:09.785Z,9.10
2018-03-17T19:21:37.339Z,8.70
2018-03-17T19:24:04.803Z,9.70
2018-03-17T19:26:32.295Z,9.60
2018-03-17T19:28:59.769Z,9.73
2018-03-17T19:31:27.288Z,9.83
2018-03-17T19:33:54.787Z,8.50
2018-03-17T19:36:22.249Z,9.83
2018-03-17T19:38:49.723Z,8.87
2018-03-17T19:41:17.192Z,8.83
2018-03-17T19:43:44.673Z,9.43
2018-03-17T19:46:12.139Z,9.40
2018-03-17T19:48:39.624Z,9.80
2018-03-17T19:51:07.084Z,9.90
2018-03-17T19:53:34.562Z,9.23
2018-03-17T19:56:03.051Z,9.43
2018-03-17T19:58:30.532Z,9.87
2018-03-17T20:00:57.997Z,8.87
2018-03-17T20:03:25.503Z,8.57
2018-03-17T20:05:53.433Z,8.77
2018-03-17T20:08:20.920Z,9.27
2018-03-17T20:10:48.392Z,10.00
2018-03-17T20:13:15.869Z,9.87
2018-03-17T20:15:43.351Z,9.93
2018-03-17T20:18:10.835Z,9.30
2018-03-17T20:20:38.312Z,9.43
2018-03-17T20:23:05.797Z,9.30
2018-03-17T20:25:33.265Z,9.20
2018-03-17T20:28:00.751Z,9.50
2018-03-17T20:30:28.239Z,9.43
2018-03-17T20:32:55.720Z,9.80
2018-03-17T20:35:23.178Z,9.90
2018-03-17T20:37:50.661Z,9.70
2018-03-17T20:40:18.128Z,10.33
2018-03-17T20:42:45.618Z,9.60
2018-03-17T20:45:13.077Z,8.80
2018-03-17T20:47:40.576Z,9.50
2018-03-17T20:50:08.037Z,8.77
2018-03-17T20:52:36.378Z,10.17
2018-03-17T20:55:03.870Z,10.20
2018-03-17T20:57:31.355Z,9.53
2018-03-17T20:59:58.840Z,9.10
2018-03-17T21:02:26.301Z,9.50
2018-03-17T21:04:53.901Z,10.17
2018-03-17T21:07:21.359Z,9.50
2018-03-17T21:09:48.857Z,9.10
2018-03-17T21:12:16.315Z,9.17
2018-03-17T21:14:43.800Z,9.77
2018-03-17T21:17:11.272Z,9.93
2018-03-17T21:19:38.767Z,10.90
2018-03-17T21:22:06.236Z,9.83
2018-03-17T21:24:33.731Z,10.40
2018-03-17T21:27:01.228Z,9.27
2018-03-17T21:29:28.707Z,9.60
2018-03-17T21:31:56.176Z,9.23
2018-03-17T21:34:23.713Z,9.03
2018-03-17T21:36:51.196Z,9.33
2018-03-17T21:39:18.664Z,8.63
2018-03-17T21:41:46.172Z,9.87
2018-03-17T21:44:13.632Z,9.97
2018-03-17T21:46:41.125Z,10.03
2018-03-17T21:49:08.586Z,9.77
2018-03-17T21:51:36.078Z,9.97
2018-03-17T21:54:03.558Z,9.87
2018-03-17T21:56:31.043Z,10.07
2018-03-17T21:58:58.508Z,9.60
2018-03-17T22:01:25.995Z,9.27
2018-03-17T22:03:53.463Z,9.80
2018-03-17T22:06:20.960Z,10.73
2018-03-17T22:08:48.420Z,9.20
2018-03-17T22:11:15.917Z,9.80
2018-03-17T22:13:44.392Z,10.93
2018-03-17T22:16:11.903Z,10.33
2018-03-17T22:18:39.424Z,10.07
2018-03-17T22:21:06.883Z,9.90
2018-03-17T22:23:34.377Z,10.03
2018-03-17T22:26:01.895Z,9.77
2018-03-17T22:28:29.372Z,10.67
2018-03-17T22:30:56.840Z,10.60
2018-03-17T22:33:24.327Z,10.67
2018-03-17T22:35:51.787Z,9.83
2018-03-17T22:38:19.276Z,10.10
2018-03-17T22:40:46.736Z,10.47
2018-03-17T22:43:14.231Z,10.17
2018-03-17T22:45:41.728Z,10.07
2018-03-17T22:48:09.221Z,10.47
2018-03-17T22:50:36.687Z,10.23
2018-03-17T22:53:04.180Z,11.07
2018-03-17T22:55:31.643Z,10.67
2018-03-17T22:58:00.006Z,10.33
2018-03-17T23:00:27.469Z,10.93
2018-03-17T23:02:54.966Z,9.10
2018-03-17T23:05:22.427Z,10.43
2018-03-17T23:07:49.956Z,10.63
2018-03-17T23:10:17.428Z,10.27
2018-03-17T23:12:44.921Z,10.10
2018-03-17T23:15:12.387Z,9.70
2018-03-17T23:17:39.883Z,10.00
2018-03-17T23:20:07.360Z,9.83
2018-03-17T23:22:34.876Z,10.03
2018-03-17T23:25:02.342Z,10.13
2018-03-17T23:27:29.840Z,10.73
2018-03-17T23:29:57.305Z,11.13
2018-03-17T23:32:24.803Z,9.97
2018-03-17T23:34:52.298Z,10.30
2018-03-17T23:37:19.760Z,9.70
2018-03-17T23:39:47.272Z,10.37
2018-03-17T23:42:14.732Z,10.13
2018-03-17T23:44:43.385Z,10.80
2018-03-17T23:47:10.871Z,10.93
2018-03-17T23:49:38.385Z,10.93
2018-03-17T23:52:05.852Z,10.37
2018-03-17T23:54:33.343Z,11.30
2018-03-17T23:57:00.813Z,11.17
2018-03-17T23:59:28.302Z,10.53
